createdAt,value
2023-01-04T00:00:02.124Z,1020.95
2023-01-04T00:01:06.319Z,1020.92
2023-01-04T00:02:10.639Z,1020.92
2023-01-04T00:03:14.972Z,1020.91
2023-01-04T00:04:19.087Z,1020.92
2023-01-04T00:05:23.224Z,1020.97
2023-01-04T00:06:27.448Z,1021.04
2023-01-04T00:07:31.644Z,1021.01
2023-01-04T00:08:35.856Z,1020.99
2023-01-04T00:09:40.063Z,1021.00
2023-01-04T00:10:44.298Z,1020.99
2023-01-04T00:11:48.462Z,1020.99
2023-01-04T00:12:52.657Z,1020.98
2023-01-04T00:13:56.940Z,1020.94
2023-01-04T00:15:01.055Z,1020.94
2023-01-04T00:16:07.814Z,1020.90
2023-01-04T00:17:09.427Z,1020.88
2023-01-04T00:18:13.501Z,1020.90
2023-01-04T00:19:17.749Z,1020.88
2023-01-04T00:20:21.944Z,1020.89
2023-01-04T00:21:26.311Z,1020.92
2023-01-04T00:22:30.504Z,1020.93
2023-01-04T00:23:34.786Z,1020.95
2023-01-04T00:24:38.936Z,1020.94
2023-01-04T00:25:43.147Z,1020.95
2023-01-04T00:26:47.336Z,1020.93
2023-01-04T00:28:05.541Z,1020.94
2023-01-04T00:29:08.623Z,1020.98
2023-01-04T00:30:12.805Z,1020.96
2023-01-04T00:31:17.021Z,1020.98
2023-01-04T00:32:21.267Z,1020.99
2023-01-04T00:33:25.474Z,1021.00
2023-01-04T00:34:29.672Z,1020.99
2023-01-04T00:35:45.775Z,1020.98
2023-01-04T00:36:38.040Z,1020.96
2023-01-04T00:37:44.621Z,1020.98
2023-01-04T00:38:49.465Z,1020.96
2023-01-04T00:39:52.765Z,1020.98
2023-01-04T00:40:56.982Z,1020.96
2023-01-04T00:42:01.997Z,1020.93
2023-01-04T00:43:05.514Z,1020.93
2023-01-04T00:44:09.671Z,1020.90
2023-01-04T00:45:13.835Z,1020.88
2023-01-04T00:46:18.062Z,1020.85
2023-01-04T00:47:22.180Z,1020.83
2023-01-04T00:48:26.531Z,1020.79
2023-01-04T00:49:30.590Z,1020.75
2023-01-04T00:50:34.821Z,1020.69
2023-01-04T00:51:39.088Z,1020.65
2023-01-04T00:52:43.274Z,1020.60
2023-01-04T00:53:47.498Z,1020.57
2023-01-04T00:54:51.713Z,1020.52
2023-01-04T00:55:55.910Z,1020.42
2023-01-04T00:57:00.096Z,1020.38
2023-01-04T00:58:04.299Z,1020.33
2023-01-04T00:59:08.460Z,1020.29
2023-01-04T01:00:12.652Z,1020.25
2023-01-04T01:01:16.954Z,1020.23
2023-01-04T01:02:21.161Z,1020.17
2023-01-04T01:03:25.520Z,1020.14
2023-01-04T01:04:29.609Z,1020.11
2023-01-04T01:05:33.709Z,1020.11
2023-01-04T01:06:37.941Z,1020.05
2023-01-04T01:07:42.127Z,1020.00
2023-01-04T01:08:46.321Z,1019.99
2023-01-04T01:09:50.525Z,1019.95
2023-01-04T01:10:54.635Z,1019.92
2023-01-04T01:11:58.940Z,1019.89
2023-01-04T01:13:03.123Z,1019.84
2023-01-04T01:14:07.351Z,1019.82
2023-01-04T01:15:11.630Z,1019.81
2023-01-04T01:16:15.861Z,1019.80
2023-01-04T01:17:19.902Z,1019.78
2023-01-04T01:18:24.252Z,1019.79
2023-01-04T01:19:28.462Z,1019.75
2023-01-04T01:20:32.775Z,1019.72
2023-01-04T01:21:36.892Z,1019.74
2023-01-04T01:22:41.155Z,1019.78
2023-01-04T01:23:45.340Z,1019.74
2023-01-04T01:24:49.620Z,1019.75
2023-01-04T01:25:53.779Z,1019.78
2023-01-04T01:26:58.028Z,1019.79
2023-01-04T01:28:02.265Z,1019.77
2023-01-04T01:29:06.439Z,1019.75
2023-01-04T01:30:10.717Z,1019.75
2023-01-04T01:31:14.999Z,1019.72
2023-01-04T01:32:19.120Z,1019.69
2023-01-04T01:33:23.370Z,1019.69
2023-01-04T01:34:27.562Z,1019.62
2023-01-04T01:35:31.694Z,1019.60
2023-01-04T01:36:35.923Z,1019.60
2023-01-04T01:37:40.137Z,1019.58
2023-01-04T01:38:44.344Z,1019.55
2023-01-04T01:39:48.636Z,1019.52
2023-01-04T01:40:52.895Z,1019.52
2023-01-04T01:41:57.082Z,1019.49
2023-01-04T01:43:01.300Z,1019.46
2023-01-04T01:44:11.610Z,1019.45
2023-01-04T01:45:14.401Z,1019.44
2023-01-04T01:46:21.633Z,1019.41
2023-01-04T01:47:24.756Z,1019.39
2023-01-04T01:48:29.114Z,1019.36
2023-01-04T01:49:33.347Z,1019.30
2023-01-04T01:50:37.476Z,1019.35
2023-01-04T01:51:41.682Z,1019.29
2023-01-04T01:52:45.883Z,1019.27
2023-01-04T01:53:50.083Z,1019.24
2023-01-04T01:54:54.301Z,1019.23
2023-01-04T01:55:58.593Z,1019.21
2023-01-04T01:57:02.760Z,1019.20
2023-01-04T01:58:07.061Z,1019.15
2023-01-04T01:59:11.217Z,1019.14
2023-01-04T02:00:15.425Z,1019.07
2023-01-04T02:01:19.831Z,1019.08
2023-01-04T02:02:24.059Z,1019.00
2023-01-04T02:03:28.204Z,1018.98
2023-01-04T02:04:32.430Z,1018.93
2023-01-04T02:05:36.588Z,1018.90
2023-01-04T02:06:40.809Z,1018.85
2023-01-04T02:07:45.125Z,1018.82
2023-01-04T02:08:49.290Z,1018.76
2023-01-04T02:09:53.545Z,1018.74
2023-01-04T02:10:57.780Z,1018.71
2023-01-04T02:12:02.027Z,1018.66
2023-01-04T02:13:06.231Z,1018.64
2023-01-04T02:14:10.469Z,1018.62
2023-01-04T02:15:14.750Z,1018.54
2023-01-04T02:16:18.921Z,1018.51
2023-01-04T02:17:23.232Z,1018.47
2023-01-04T02:18:27.360Z,1018.49
2023-01-04T02:19:31.632Z,1018.46
2023-01-04T02:20:35.891Z,1018.47
2023-01-04T02:21:39.990Z,1018.42
2023-01-04T02:22:44.238Z,1018.36
2023-01-04T02:23:48.435Z,1018.36
2023-01-04T02:24:52.631Z,1018.35
2023-01-04T02:25:56.820Z,1018.29
2023-01-04T02:27:01.060Z,1018.32
2023-01-04T02:28:05.276Z,1018.29
2023-01-04T02:29:09.541Z,1018.24
2023-01-04T02:30:13.733Z,1018.19
2023-01-04T02:31:18.059Z,1018.13
2023-01-04T02:32:22.243Z,1018.14
2023-01-04T02:33:26.475Z,1018.07
2023-01-04T02:34:30.686Z,1018.10
2023-01-04T02:35:34.902Z,1017.99
2023-01-04T02:36:39.133Z,1017.95
2023-01-04T02:37:43.326Z,1017.88
2023-01-04T02:38:47.572Z,1017.87
2023-01-04T02:39:51.749Z,1017.79
2023-01-04T02:40:55.926Z,1017.75
2023-01-04T02:42:00.229Z,1017.69
2023-01-04T02:43:04.536Z,1017.68
2023-01-04T02:44:08.668Z,1017.66
2023-01-04T02:45:12.905Z,1017.64
2023-01-04T02:46:17.156Z,1017.57
2023-01-04T02:47:21.241Z,1017.56
2023-01-04T02:48:25.523Z,1017.53
2023-01-04T02:49:29.745Z,1017.50
2023-01-04T02:50:34.024Z,1017.49
2023-01-04T02:51:38.305Z,1017.44
2023-01-04T02:52:42.441Z,1017.50
2023-01-04T02:53:49.694Z,1017.46
2023-01-04T02:54:53.032Z,1017.43
2023-01-04T02:55:57.175Z,1017.33
2023-01-04T02:57:05.625Z,1017.32
2023-01-04T02:58:05.584Z,1017.26
2023-01-04T02:59:09.905Z,1017.24
2023-01-04T03:00:14.091Z,1017.24
2023-01-04T03:01:18.445Z,1017.17
2023-01-04T03:02:22.722Z,1017.17
2023-01-04T03:03:27.039Z,1017.18
2023-01-04T03:04:30.972Z,1017.16
2023-01-04T03:05:35.196Z,1017.13
2023-01-04T03:06:39.409Z,1017.08
2023-01-04T03:07:43.724Z,1017.01
2023-01-04T03:08:47.903Z,1016.95
2023-01-04T03:09:52.163Z,1016.88
2023-01-04T03:10:56.351Z,1016.83
2023-01-04T03:12:00.523Z,1016.81
2023-01-04T03:13:04.781Z,1016.78
2023-01-04T03:14:31.680Z,1016.79
2023-01-04T03:15:13.175Z,1016.75
2023-01-04T03:16:17.406Z,1016.81
2023-01-04T03:17:21.611Z,1016.73
2023-01-04T03:18:25.830Z,1016.76
2023-01-04T03:19:30.057Z,1016.67
2023-01-04T03:20:34.242Z,1016.69
2023-01-04T03:21:38.502Z,1016.64
2023-01-04T03:22:42.758Z,1016.59
2023-01-04T03:23:46.945Z,1016.60
2023-01-04T03:24:51.161Z,1016.62
2023-01-04T03:25:55.371Z,1016.57
2023-01-04T03:26:59.575Z,1016.56
2023-01-04T03:28:03.776Z,1016.46
2023-01-04T03:29:08.003Z,1016.46
2023-01-04T03:30:12.226Z,1016.41
2023-01-04T03:31:16.503Z,1016.40
2023-01-04T03:32:20.584Z,1016.32
2023-01-04T03:33:24.840Z,1016.25
2023-01-04T03:34:29.036Z,1016.19
2023-01-04T03:35:33.236Z,1016.13
2023-01-04T03:36:37.498Z,1016.11
2023-01-04T03:37:41.742Z,1016.05
2023-01-04T03:38:45.954Z,1016.03
2023-01-04T03:39:50.237Z,1015.98
2023-01-04T03:40:54.367Z,1016.04
2023-01-04T03:41:58.694Z,1016.02
2023-01-04T03:43:02.875Z,1016.03
2023-01-04T03:44:07.091Z,1016.03
2023-01-04T03:45:11.283Z,1016.00
2023-01-04T03:46:15.507Z,1015.97
2023-01-04T03:47:19.800Z,1015.91
2023-01-04T03:48:23.985Z,1015.88
2023-01-04T03:49:28.160Z,1015.87
2023-01-04T03:50:32.381Z,1015.82
2023-01-04T03:51:36.552Z,1015.76
2023-01-04T03:52:40.749Z,1015.75
2023-01-04T03:53:45.005Z,1015.64
2023-01-04T03:54:49.203Z,1015.60
2023-01-04T03:56:07.431Z,1015.59
2023-01-04T03:57:10.672Z,1015.59
2023-01-04T03:58:14.853Z,1015.57
2023-01-04T03:59:19.033Z,1015.61
2023-01-04T04:00:23.250Z,1015.57
2023-01-04T04:01:30.656Z,1015.60
2023-01-04T04:02:33.764Z,1015.59
2023-01-04T04:03:38.033Z,1015.58
2023-01-04T04:04:42.140Z,1015.54
2023-01-04T04:05:46.355Z,1015.54
2023-01-04T04:06:50.556Z,1015.47
2023-01-04T04:07:54.821Z,1015.43
2023-01-04T04:08:59.097Z,1015.42
2023-01-04T04:10:03.228Z,1015.30
2023-01-04T04:11:07.427Z,1015.28
2023-01-04T04:12:11.647Z,1015.31
2023-01-04T04:13:21.824Z,1015.27
2023-01-04T04:14:24.626Z,1015.27
2023-01-04T04:15:28.813Z,1015.24
2023-01-04T04:16:33.053Z,1015.11
2023-01-04T04:17:37.256Z,1015.07
2023-01-04T04:18:41.457Z,1015.05
2023-01-04T04:19:45.657Z,1015.00
2023-01-04T04:20:49.844Z,1014.95
2023-01-04T04:21:54.082Z,1014.89
2023-01-04T04:22:58.260Z,1014.88
2023-01-04T04:24:02.536Z,1014.88
2023-01-04T04:25:06.713Z,1014.82
2023-01-04T04:26:10.933Z,1014.74
2023-01-04T04:27:15.121Z,1014.69
2023-01-04T04:28:19.300Z,1014.59
2023-01-04T04:29:23.531Z,1014.62
2023-01-04T04:30:27.768Z,1014.54
2023-01-04T04:31:32.071Z,1014.53
2023-01-04T04:32:36.214Z,1014.52
2023-01-04T04:33:40.446Z,1014.48
2023-01-04T04:34:44.729Z,1014.41
2023-01-04T04:35:48.895Z,1014.39
2023-01-04T04:36:53.066Z,1014.37
2023-01-04T04:37:57.271Z,1014.34
2023-01-04T04:39:01.518Z,1014.37
2023-01-04T04:40:05.846Z,1014.36
2023-01-04T04:41:09.926Z,1014.30
2023-01-04T04:42:14.181Z,1014.27
2023-01-04T04:43:18.419Z,1014.27
2023-01-04T04:44:22.604Z,1014.26
2023-01-04T04:45:26.803Z,1014.28
2023-01-04T04:46:31.014Z,1014.20
2023-01-04T04:47:35.217Z,1014.16
2023-01-04T04:48:39.392Z,1014.17
2023-01-04T04:49:43.619Z,1014.15
2023-01-04T04:51:01.850Z,1014.09
2023-01-04T04:52:05.085Z,1014.03
2023-01-04T04:53:09.266Z,1013.97
2023-01-04T04:54:13.417Z,1013.95
2023-01-04T04:55:17.664Z,1013.98
2023-01-04T04:56:21.793Z,1013.94
2023-01-04T04:57:26.064Z,1013.90
2023-01-04T04:58:30.216Z,1013.86
2023-01-04T04:59:34.421Z,1013.85
2023-01-04T05:00:38.749Z,1013.84
2023-01-04T05:01:43.047Z,1013.84
2023-01-04T05:02:47.093Z,1013.81
2023-01-04T05:03:51.258Z,1013.78
2023-01-04T05:04:55.461Z,1013.78
2023-01-04T05:05:59.820Z,1013.77
2023-01-04T05:07:08.921Z,1013.72
2023-01-04T05:08:08.182Z,1013.66
2023-01-04T05:09:15.477Z,1013.66
2023-01-04T05:10:32.837Z,1013.61
2023-01-04T05:11:35.827Z,1013.55
2023-01-04T05:12:39.987Z,1013.49
2023-01-04T05:13:44.122Z,1013.48
2023-01-04T05:14:48.217Z,1013.50
2023-01-04T05:15:52.491Z,1013.46
2023-01-04T05:17:02.952Z,1013.45
2023-01-04T05:18:05.501Z,1013.42
2023-01-04T05:19:09.815Z,1013.41
2023-01-04T05:20:13.985Z,1013.42
2023-01-04T05:21:20.228Z,1013.40
2023-01-04T05:22:22.313Z,1013.40
2023-01-04T05:23:26.584Z,1013.32
2023-01-04T05:24:30.831Z,1013.32
2023-01-04T05:25:35.074Z,1013.28
2023-01-04T05:26:39.271Z,1013.20
2023-01-04T05:27:43.463Z,1013.23
2023-01-04T05:28:53.448Z,1013.16
2023-01-04T05:29:51.923Z,1013.13
2023-01-04T05:30:56.174Z,1013.13
2023-01-04T05:32:00.358Z,1013.13
2023-01-04T05:33:04.506Z,1013.10
2023-01-04T05:34:08.752Z,1013.07
2023-01-04T05:35:13.002Z,1013.08
2023-01-04T05:36:17.321Z,1013.03
2023-01-04T05:37:35.547Z,1013.06
2023-01-04T05:38:38.717Z,1013.02
2023-01-04T05:39:42.855Z,1012.99
2023-01-04T05:40:47.093Z,1012.93
2023-01-04T05:41:51.314Z,1012.89
2023-01-04T05:42:55.538Z,1012.85
2023-01-04T05:43:59.722Z,1012.85
2023-01-04T05:45:04.049Z,1012.85
2023-01-04T05:46:08.240Z,1012.75
2023-01-04T05:47:15.152Z,1012.84
2023-01-04T05:48:16.713Z,1012.71
2023-01-04T05:49:20.967Z,1012.70
2023-01-04T05:50:25.173Z,1012.66
2023-01-04T05:51:29.374Z,1012.69
2023-01-04T05:52:33.579Z,1012.64
2023-01-04T05:53:37.788Z,1012.62
2023-01-04T05:54:41.989Z,1012.63
2023-01-04T05:55:46.149Z,1012.60
2023-01-04T05:56:50.458Z,1012.57
2023-01-04T05:57:57.570Z,1012.53
2023-01-04T05:59:00.864Z,1012.53
2023-01-04T06:00:05.027Z,1012.55
2023-01-04T06:01:09.429Z,1012.53
2023-01-04T06:02:13.732Z,1012.48
2023-01-04T06:03:18.132Z,1012.47
2023-01-04T06:04:22.151Z,1012.43
2023-01-04T06:05:26.439Z,1012.38
2023-01-04T06:06:30.684Z,1012.41
2023-01-04T06:07:34.939Z,1012.31
2023-01-04T06:08:39.217Z,1012.32
2023-01-04T06:09:43.529Z,1012.28
2023-01-04T06:10:47.814Z,1012.29
2023-01-04T06:11:52.100Z,1012.27
2023-01-04T06:12:56.477Z,1012.23
2023-01-04T06:14:00.791Z,1012.23
2023-01-04T06:15:05.101Z,1012.19
2023-01-04T06:16:09.429Z,1012.19
2023-01-04T06:17:13.820Z,1012.13
2023-01-04T06:18:17.979Z,1012.06
2023-01-04T06:19:22.366Z,1012.07
2023-01-04T06:20:26.597Z,1012.06
2023-01-04T06:21:30.900Z,1012.04
2023-01-04T06:22:35.210Z,1011.98
2023-01-04T06:23:39.482Z,1012.00
2023-01-04T06:24:43.747Z,1011.95
2023-01-04T06:25:47.908Z,1011.94
2023-01-04T06:26:52.222Z,1011.93
2023-01-04T06:27:56.484Z,1011.86
2023-01-04T06:29:00.748Z,1011.85
2023-01-04T06:30:05.052Z,1011.83
2023-01-04T06:31:09.485Z,1011.84
2023-01-04T06:32:13.643Z,1011.78
2023-01-04T06:33:17.908Z,1011.72
2023-01-04T06:34:26.985Z,1011.68
2023-01-04T06:35:26.475Z,1011.59
2023-01-04T06:36:30.750Z,1011.57
2023-01-04T06:37:35.030Z,1011.53
2023-01-04T06:38:39.328Z,1011.50
2023-01-04T06:39:43.743Z,1011.47
2023-01-04T06:40:47.955Z,1011.46
2023-01-04T06:41:52.243Z,1011.37
2023-01-04T06:42:56.568Z,1011.43
2023-01-04T06:44:00.858Z,1011.39
2023-01-04T06:45:05.239Z,1011.34
2023-01-04T06:46:09.480Z,1011.26
2023-01-04T06:47:13.690Z,1011.23
2023-01-04T06:48:18.719Z,1011.20
2023-01-04T06:49:22.103Z,1011.18
2023-01-04T06:50:26.424Z,1011.14
2023-01-04T06:51:30.687Z,1011.16
2023-01-04T06:52:34.971Z,1011.11
2023-01-04T06:53:39.241Z,1011.06
2023-01-04T06:54:43.531Z,1011.09
2023-01-04T06:55:47.734Z,1010.99
2023-01-04T06:56:52.045Z,1011.02
2023-01-04T06:57:59.302Z,1011.01
2023-01-04T06:59:00.577Z,1010.93
2023-01-04T07:00:04.932Z,1010.90
2023-01-04T07:01:09.275Z,1010.88
2023-01-04T07:02:13.642Z,1010.90
2023-01-04T07:03:17.765Z,1010.89
2023-01-04T07:04:21.903Z,1010.78
2023-01-04T07:05:26.197Z,1010.81
2023-01-04T07:06:30.477Z,1010.79
2023-01-04T07:07:34.719Z,1010.77
2023-01-04T07:08:39.012Z,1010.75
2023-01-04T07:09:57.301Z,1010.69
2023-01-04T07:11:00.420Z,1010.68
2023-01-04T07:12:04.650Z,1010.66
2023-01-04T07:13:08.961Z,1010.63
2023-01-04T07:14:13.216Z,1010.67
2023-01-04T07:15:38.250Z,1010.63
2023-01-04T07:16:21.890Z,1010.72
2023-01-04T07:17:29.871Z,1010.61
2023-01-04T07:18:30.273Z,1010.60
2023-01-04T07:19:34.583Z,1010.59
2023-01-04T07:20:38.807Z,1010.52
2023-01-04T07:21:43.024Z,1010.50
2023-01-04T07:22:47.374Z,1010.46
2023-01-04T07:23:51.603Z,1010.38
2023-01-04T07:24:55.852Z,1010.38
2023-01-04T07:26:00.145Z,1010.32
2023-01-04T07:27:04.356Z,1010.29
2023-01-04T07:28:08.610Z,1010.26
2023-01-04T07:29:12.938Z,1010.24
2023-01-04T07:30:17.216Z,1010.20
2023-01-04T07:31:21.813Z,1010.08
2023-01-04T07:32:25.851Z,1010.13
2023-01-04T07:33:30.116Z,1010.06
2023-01-04T07:34:34.372Z,1010.12
2023-01-04T07:35:38.646Z,1010.04
2023-01-04T07:36:42.896Z,1010.07
2023-01-04T07:37:50.884Z,1010.06
2023-01-04T07:38:51.424Z,1010.08
2023-01-04T07:39:55.489Z,1010.08
2023-01-04T07:40:59.827Z,1010.02
2023-01-04T07:42:04.051Z,1009.96
2023-01-04T07:43:08.255Z,1009.85
2023-01-04T07:44:12.617Z,1009.86
2023-01-04T07:45:16.831Z,1009.77
2023-01-04T07:46:21.191Z,1009.69
2023-01-04T07:47:25.244Z,1009.81
2023-01-04T07:48:29.723Z,1009.84
2023-01-04T07:49:33.824Z,1009.73
2023-01-04T07:50:38.131Z,1009.82
2023-01-04T07:51:42.376Z,1009.87
2023-01-04T07:52:46.683Z,1009.92
2023-01-04T07:53:50.947Z,1009.78
2023-01-04T07:54:55.181Z,1009.71
2023-01-04T07:55:59.445Z,1009.71
2023-01-04T07:57:03.710Z,1009.54
2023-01-04T07:58:07.962Z,1009.55
2023-01-04T07:59:12.162Z,1009.49
2023-01-04T08:00:16.466Z,1009.47
2023-01-04T08:01:21.006Z,1009.26
2023-01-04T08:02:25.109Z,1009.31
2023-01-04T08:03:29.298Z,1009.42
2023-01-04T08:04:35.406Z,1009.41
2023-01-04T08:05:37.903Z,1009.40
2023-01-04T08:06:42.182Z,1009.32
2023-01-04T08:07:46.428Z,1009.29
2023-01-04T08:08:50.800Z,1009.22
2023-01-04T08:09:54.973Z,1009.21
2023-01-04T08:10:59.263Z,1009.24
2023-01-04T08:12:03.529Z,1009.25
2023-01-04T08:13:07.765Z,1009.22
2023-01-04T08:14:13.069Z,1009.18
2023-01-04T08:15:20.037Z,1009.08
2023-01-04T08:16:23.261Z,1009.06
2023-01-04T08:17:27.630Z,1008.91
2023-01-04T08:18:34.901Z,1008.82
2023-01-04T08:19:38.245Z,1008.90
2023-01-04T08:20:42.383Z,1008.94
2023-01-04T08:21:46.719Z,1008.91
2023-01-04T08:22:50.956Z,1008.85
2023-01-04T08:23:55.201Z,1008.92
2023-01-04T08:24:59.477Z,1008.86
2023-01-04T08:26:03.763Z,1008.85
2023-01-04T08:27:08.122Z,1008.86
2023-01-04T08:28:12.380Z,1008.78
2023-01-04T08:29:16.738Z,1008.79
2023-01-04T08:30:20.979Z,1008.78
2023-01-04T08:31:25.260Z,1008.73
2023-01-04T08:32:29.498Z,1008.64
2023-01-04T08:33:33.715Z,1008.59
2023-01-04T08:34:38.072Z,1008.63
2023-01-04T08:35:42.350Z,1008.68
2023-01-04T08:36:46.498Z,1008.66
2023-01-04T08:37:50.769Z,1008.65
2023-01-04T08:38:59.864Z,1008.63
2023-01-04T08:39:59.458Z,1008.64
2023-01-04T08:41:16.846Z,1008.48
2023-01-04T08:42:20.304Z,1008.50
2023-01-04T08:43:12.451Z,1008.43
2023-01-04T08:44:16.616Z,1008.50
2023-01-04T08:45:26.994Z,1008.37
2023-01-04T08:46:30.000Z,1008.40
2023-01-04T08:47:34.151Z,1008.37
2023-01-04T08:48:38.403Z,1008.36
2023-01-04T08:49:42.734Z,1008.39
2023-01-04T08:50:50.084Z,1008.34
2023-01-04T08:51:53.390Z,1008.28
2023-01-04T08:52:57.652Z,1008.21
2023-01-04T08:54:01.932Z,1008.14
2023-01-04T08:55:12.305Z,1008.26
2023-01-04T08:56:10.461Z,1008.32
2023-01-04T08:57:14.757Z,1008.25
2023-01-04T08:58:19.076Z,1008.15
2023-01-04T08:59:23.330Z,1008.12
2023-01-04T09:00:27.598Z,1008.18
2023-01-04T09:01:35.018Z,1008.19
2023-01-04T09:02:38.405Z,1008.21
2023-01-04T09:03:42.537Z,1008.26
2023-01-04T09:04:47.656Z,1008.20
2023-01-04T09:05:51.555Z,1008.16
2023-01-04T09:06:55.792Z,1008.13
2023-01-04T09:08:00.107Z,1008.07
2023-01-04T09:09:04.249Z,1008.06
2023-01-04T09:10:08.583Z,1008.12
2023-01-04T09:11:12.861Z,1008.19
2023-01-04T09:12:17.308Z,1008.12
2023-01-04T09:13:21.620Z,1008.07
2023-01-04T09:14:25.888Z,1007.99
2023-01-04T09:15:30.165Z,1008.02
2023-01-04T09:16:34.592Z,1008.02
2023-01-04T09:17:51.947Z,1008.00
2023-01-04T09:18:45.943Z,1008.04
2023-01-04T09:19:49.306Z,1008.04
2023-01-04T09:20:53.490Z,1008.00
2023-01-04T09:21:57.881Z,1007.96
2023-01-04T09:23:02.067Z,1007.90
2023-01-04T09:24:06.377Z,1007.83
2023-01-04T09:25:10.667Z,1007.88
2023-01-04T09:26:14.917Z,1007.86
2023-01-04T09:27:19.108Z,1007.88
2023-01-04T09:28:23.415Z,1007.87
2023-01-04T09:29:27.665Z,1007.82
2023-01-04T09:30:31.944Z,1007.74
2023-01-04T09:31:36.177Z,1007.75
2023-01-04T09:32:40.327Z,1007.75
2023-01-04T09:34:13.552Z,1007.77
2023-01-04T09:34:48.831Z,1007.75
2023-01-04T09:37:20.187Z,1007.64
2023-01-04T09:38:24.402Z,1007.67
2023-01-04T09:39:28.634Z,1007.63
2023-01-04T09:40:32.855Z,1007.58
2023-01-04T09:41:37.080Z,1007.56
2023-01-04T09:42:41.342Z,1007.61
2023-01-04T09:43:48.539Z,1007.53
2023-01-04T09:45:56.110Z,1007.56
2023-01-04T09:47:00.490Z,1007.55
2023-01-04T09:48:07.639Z,1007.52
2023-01-04T09:49:11.206Z,1007.54
2023-01-04T09:50:15.448Z,1007.54
2023-01-04T09:51:19.677Z,1007.52
2023-01-04T09:52:23.819Z,1007.43
2023-01-04T09:53:28.021Z,1007.43
2023-01-04T09:54:32.335Z,1007.42
2023-01-04T09:55:40.825Z,1007.47
2023-01-04T09:56:40.752Z,1007.41
2023-01-04T09:57:45.080Z,1007.37
2023-01-04T09:58:49.359Z,1007.38
2023-01-04T09:59:53.712Z,1007.42
2023-01-04T10:00:58.313Z,1007.40
2023-01-04T10:02:02.663Z,1007.36
2023-01-04T10:03:07.023Z,1007.29
2023-01-04T10:04:11.983Z,1007.37
2023-01-04T10:05:15.755Z,1007.29
2023-01-04T10:06:20.045Z,1007.28
2023-01-04T10:07:24.369Z,1007.29
2023-01-04T10:08:28.610Z,1007.29
2023-01-04T10:09:32.842Z,1007.30
2023-01-04T10:10:38.149Z,1007.28
2023-01-04T10:11:41.924Z,1007.24
2023-01-04T10:12:46.263Z,1007.21
2023-01-04T10:13:50.571Z,1007.11
2023-01-04T10:14:55.354Z,1007.11
2023-01-04T10:15:59.505Z,1007.08
2023-01-04T10:17:13.703Z,1007.07
2023-01-04T10:19:28.670Z,1007.09
2023-01-04T10:19:36.727Z,1007.08
2023-01-04T10:21:32.233Z,1007.03
2023-01-04T10:22:25.120Z,1007.02
2023-01-04T10:23:29.508Z,1006.97
2023-01-04T10:24:33.719Z,1006.96
2023-01-04T10:25:38.048Z,1006.94
2023-01-04T10:26:42.149Z,1007.02
2023-01-04T10:27:46.548Z,1006.92
2023-01-04T10:28:50.740Z,1006.85
2023-01-04T10:29:54.993Z,1006.84
2023-01-04T10:30:59.194Z,1006.81
2023-01-04T10:32:17.749Z,1006.77
2023-01-04T10:33:20.526Z,1006.71
2023-01-04T10:34:24.745Z,1006.70
2023-01-04T10:35:29.105Z,1006.67
2023-01-04T10:36:33.395Z,1006.67
2023-01-04T10:37:37.638Z,1006.63
2023-01-04T10:38:41.947Z,1006.58
2023-01-04T10:39:46.157Z,1006.58
2023-01-04T10:40:50.653Z,1006.61
2023-01-04T10:41:54.672Z,1006.53
2023-01-04T10:43:04.896Z,1006.49
2023-01-04T10:44:09.811Z,1006.45
2023-01-04T10:45:12.041Z,1006.47
2023-01-04T10:46:16.413Z,1006.50
2023-01-04T10:47:20.553Z,1006.48
2023-01-04T10:48:30.767Z,1006.48
2023-01-04T10:49:33.743Z,1006.46
2023-01-04T10:50:38.023Z,1006.42
2023-01-04T10:51:42.261Z,1006.40
2023-01-04T10:52:46.541Z,1006.39
2023-01-04T10:53:50.855Z,1006.30
2023-01-04T10:54:55.100Z,1006.32
2023-01-04T10:56:24.011Z,1006.28
2023-01-04T10:57:06.686Z,1006.29
2023-01-04T10:58:07.894Z,1006.26
2023-01-04T10:59:12.121Z,1006.23
2023-01-04T11:00:16.568Z,1006.15
2023-01-04T11:01:20.901Z,1006.16
2023-01-04T11:02:25.184Z,1006.15
2023-01-04T11:03:29.386Z,1006.14
2023-01-04T11:04:33.530Z,1006.08
2023-01-04T11:05:40.836Z,1006.04
2023-01-04T11:06:44.231Z,1005.99
2023-01-04T11:07:48.383Z,1006.00
2023-01-04T11:08:55.638Z,1005.95
2023-01-04T11:09:59.128Z,1005.98
2023-01-04T11:11:03.369Z,1005.94
2023-01-04T11:12:07.645Z,1005.95
2023-01-04T11:13:11.788Z,1005.89
2023-01-04T11:14:16.110Z,1005.89
2023-01-04T11:15:20.412Z,1005.86
2023-01-04T11:16:24.868Z,1005.89
2023-01-04T11:17:29.055Z,1005.89
2023-01-04T11:18:33.326Z,1005.91
2023-01-04T11:19:37.572Z,1005.89
2023-01-04T11:20:41.863Z,1005.88
2023-01-04T11:21:46.053Z,1005.80
2023-01-04T11:22:50.499Z,1005.82
2023-01-04T11:24:30.988Z,1005.85
2023-01-04T11:26:15.960Z,1005.86
2023-01-04T11:27:25.136Z,1005.80
2023-01-04T11:28:24.433Z,1005.80
2023-01-04T11:29:28.739Z,1005.75
2023-01-04T11:30:32.871Z,1005.77
2023-01-04T11:31:37.253Z,1005.73
2023-01-04T11:32:41.495Z,1005.71
2023-01-04T11:33:45.612Z,1005.74
2023-01-04T11:34:49.927Z,1005.69
2023-01-04T11:35:54.265Z,1005.70
2023-01-04T11:36:58.430Z,1005.67
2023-01-04T11:38:02.832Z,1005.65
2023-01-04T11:39:07.087Z,1005.62
2023-01-04T11:40:11.326Z,1005.61
2023-01-04T11:41:15.683Z,1005.57
2023-01-04T11:42:20.023Z,1005.58
2023-01-04T11:43:24.207Z,1005.57
2023-01-04T11:44:28.602Z,1005.57
2023-01-04T11:45:32.900Z,1005.53
2023-01-04T11:48:14.613Z,1005.55
2023-01-04T11:49:12.806Z,1005.54
2023-01-04T11:50:16.947Z,1005.54
2023-01-04T11:51:21.304Z,1005.47
2023-01-04T11:52:25.601Z,1005.46
2023-01-04T11:53:30.856Z,1005.48
2023-01-04T11:54:34.771Z,1005.49
2023-01-04T11:55:40.020Z,1005.52
2023-01-04T11:56:43.782Z,1005.42
2023-01-04T11:57:51.365Z,1005.44
2023-01-04T11:58:54.830Z,1005.44
2023-01-04T11:59:58.824Z,1005.48
2023-01-04T12:01:06.072Z,1005.43
2023-01-04T12:02:09.609Z,1005.41
2023-01-04T12:03:13.589Z,1005.42
2023-01-04T12:04:17.846Z,1005.40
2023-01-04T12:05:30.351Z,1005.41
2023-01-04T12:06:30.948Z,1005.42
2023-01-04T12:07:35.283Z,1005.38
2023-01-04T12:08:39.477Z,1005.39
2023-01-04T12:09:43.776Z,1005.38
2023-01-04T12:10:47.957Z,1005.35
2023-01-04T12:11:52.195Z,1005.34
2023-01-04T12:14:23.687Z,1005.28
2023-01-04T12:15:27.818Z,1005.27
2023-01-04T12:16:46.048Z,1005.25
2023-01-04T12:17:49.239Z,1005.21
2023-01-04T12:18:53.407Z,1005.20
2023-01-04T12:19:57.646Z,1005.14
2023-01-04T12:21:01.877Z,1005.15
2023-01-04T12:22:06.113Z,1005.16
2023-01-04T12:23:10.449Z,1005.17
2023-01-04T12:24:14.671Z,1005.18
2023-01-04T12:25:18.789Z,1005.17
2023-01-04T12:26:23.085Z,1005.14
2023-01-04T12:27:27.337Z,1005.12
2023-01-04T12:28:31.573Z,1005.02
2023-01-04T12:29:35.839Z,1005.06
2023-01-04T12:30:40.138Z,1005.11
2023-01-04T12:31:44.336Z,1005.04
2023-01-04T12:32:48.466Z,1005.02
2023-01-04T12:33:52.808Z,1004.99
2023-01-04T12:34:57.089Z,1004.97
2023-01-04T12:36:01.391Z,1004.92
2023-01-04T12:37:06.301Z,1004.93
2023-01-04T12:38:09.848Z,1004.89
2023-01-04T12:39:14.201Z,1004.89
2023-01-04T12:40:18.367Z,1004.84
2023-01-04T12:41:22.610Z,1004.84
2023-01-04T12:42:27.019Z,1004.82
2023-01-04T12:43:31.179Z,1004.79
2023-01-04T12:44:35.457Z,1004.78
2023-01-04T12:45:39.847Z,1004.79
2023-01-04T12:46:43.960Z,1004.79
2023-01-04T12:47:48.258Z,1004.76
2023-01-04T12:48:52.503Z,1004.75
2023-01-04T12:49:56.791Z,1004.74
2023-01-04T12:51:21.739Z,1004.73
2023-01-04T12:52:29.457Z,1004.74
2023-01-04T12:53:29.792Z,1004.74
2023-01-04T12:54:15.920Z,1004.72
2023-01-04T12:55:20.138Z,1004.71
2023-01-04T12:56:24.354Z,1004.72
2023-01-04T12:57:32.102Z,1004.68
2023-01-04T12:59:37.092Z,1004.65
2023-01-04T13:00:41.381Z,1004.64
2023-01-04T13:01:45.733Z,1004.64
2023-01-04T13:02:50.082Z,1004.60
2023-01-04T13:03:56.030Z,1004.61
2023-01-04T13:05:43.568Z,1004.66
2023-01-04T13:06:02.705Z,1004.56
2023-01-04T13:07:06.966Z,1004.60
2023-01-04T13:08:11.218Z,1004.56